TimeCST,TemperatureF,Dew PointF,Humidity,Sea Level PressureIn,VisibilityMPH,Wind Direction,Wind SpeedMPH,Gust SpeedMPH,PrecipitationIn,Events,Conditions,WindDirDegrees,DateUTC
12:09 AM,1.4,-0.9,90,29.96,7.0,Calm,Calm,-,N/A,,Clear,0,2012-12-12 06:09:00
12:23 AM,1.9,-0.2,91,29.96,7.0,East,3.5,-,N/A,,Clear,100,2012-12-12 06:23:00
12:50 AM,6.8,5.0,92,29.95,7.0,East,3.5,-,N/A,,Clear,100,2012-12-12 06:50:00
1:10 AM,8.6,6.8,92,29.94,7.0,East,4.6,-,N/A,,Clear,90,2012-12-12 07:10:00
1:30 AM,8.6,6.8,92,29.94,10.0,East,5.8,-,N/A,,Clear,90,2012-12-12 07:30:00
1:50 AM,8.6,6.8,92,29.93,10.0,East,6.9,-,N/A,,Clear,90,2012-12-12 07:50:00
2:10 AM,10.4,8.6,92,29.92,10.0,East,6.9,-,N/A,,Clear,90,2012-12-12 08:10:00
2:30 AM,10.4,8.6,92,29.91,10.0,East,6.9,-,N/A,,Clear,90,2012-12-12 08:30:00
2:50 AM,12.2,10.4,92,29.91,10.0,East,6.9,-,N/A,,Clear,100,2012-12-12 08:50:00
3:10 AM,14.0,12.2,93,29.90,7.0,East,8.1,-,N/A,,Scattered Clouds,90,2012-12-12 09:10:00
3:30 AM,14.0,12.2,93,29.89,7.0,East,6.9,-,N/A,,Mostly Cloudy,100,2012-12-12 09:30:00
3:50 AM,15.8,15.8,100,29.88,7.0,East,9.2,-,N/A,,Overcast,100,2012-12-12 09:50:00
4:10 AM,15.8,15.8,100,29.87,10.0,ESE,8.1,-,N/A,,Scattered Clouds,110,2012-12-12 10:10:00
4:30 AM,17.6,15.8,93,29.86,10.0,ESE,10.4,-,N/A,,Clear,120,2012-12-12 10:30:00
4:37 AM,17.6,16.5,96,29.86,10.0,ESE,10.4,-,N/A,,Clear,110,2012-12-12 10:37:00
4:48 AM,18.5,17.6,96,29.86,10.0,ESE,10.4,-,N/A,,Clear,110,2012-12-12 10:48:00
5:09 AM,19.2,18.3,96,29.85,10.0,ESE,9.2,-,N/A,,Mostly Cloudy,110,2012-12-12 11:09:00
5:29 AM,19.2,18.3,96,29.84,10.0,ESE,10.4,-,N/A,,Scattered Clouds,110,2012-12-12 11:29:00
5:48 AM,19.2,18.5,97,29.84,10.0,ESE,10.4,-,N/A,,Clear,110,2012-12-12 11:48:00
6:09 AM,19.2,18.3,96,29.83,10.0,ESE,10.4,-,N/A,,Clear,110,2012-12-12 12:09:00
6:28 AM,20.3,19.4,96,29.83,10.0,ESE,9.2,-,N/A,,Clear,110,2012-12-12 12:28:00
7:08 AM,21.0,19.6,94,29.83,10.0,ESE,9.2,-,N/A,,Clear,110,2012-12-12 13:08:00
7:29 AM,22.1,20.1,92,29.83,10.0,ESE,6.9,-,N/A,,Clear,120,2012-12-12 13:29:00
7:49 AM,24.3,21.7,90,29.82,10.0,SE,10.4,-,N/A,,Clear,130,2012-12-12 13:49:00
8:09 AM,25.7,22.5,88,29.82,10.0,SE,9.2,-,N/A,,Clear,130,2012-12-12 14:09:00
8:28 AM,26.6,23.0,86,29.82,10.0,SE,8.1,-,N/A,,Clear,130,2012-12-12 14:28:00
8:48 AM,26.6,23.4,88,29.82,10.0,SE,6.9,-,N/A,,Mostly Cloudy,140,2012-12-12 14:48:00
9:08 AM,29.3,25.3,85,29.83,10.0,SSE,4.6,-,N/A,,Overcast,160,2012-12-12 15:08:00
9:29 AM,29.3,25.2,85,29.82,10.0,SSE,5.8,-,N/A,,Overcast,160,2012-12-12 15:29:00
9:49 AM,29.3,24.6,83,29.82,10.0,South,5.8,-,N/A,,Scattered Clouds,170,2012-12-12 15:49:00
10:08 AM,29.3,24.1,81,29.83,10.0,South,6.9,-,N/A,,Clear,170,2012-12-12 16:08:00
10:28 AM,31.3,25.5,79,29.83,10.0,South,8.1,-,N/A,,Clear,170,2012-12-12 16:28:00
10:46 AM,31.8,25.7,78,29.82,10.0,South,8.1,-,N/A,,Clear,170,2012-12-12 16:46:00
11:09 AM,31.8,25.7,78,29.82,10.0,South,6.9,-,N/A,,Clear,170,2012-12-12 17:09:00
11:29 AM,32.0,25.9,78,29.81,10.0,South,8.1,-,N/A,,Clear,170,2012-12-12 17:29:00
11:48 AM,34.0,27.5,77,29.81,10.0,South,5.8,-,N/A,,Clear,180,2012-12-12 17:48:00
12:09 PM,34.0,27.3,77,29.81,10.0,South,5.8,-,N/A,,Clear,170,2012-12-12 18:09:00
12:28 PM,34.0,27.0,75,29.81,10.0,South,4.6,-,0.02,,Clear,170,2012-12-12 18:28:00
12:49 PM,34.0,27.0,75,29.81,10.0,South,4.6,-,0.03,,Clear,170,2012-12-12 18:49:00
1:09 PM,-9999,-9999,N/A,-9999,-9999.0,North,-9999.0,-,N/A,,Unknown,0,2012-12-12 19:09:00
1:46 PM,-9999,-9999,N/A,-9999,-9999.0,North,-9999.0,-,N/A,,Unknown,0,2012-12-12 19:46:00
2:09 PM,34.0,28.8,81,29.80,10.0,SSE,4.6,-,N/A,,Unknown,160,2012-12-12 20:09:00
2:30 PM,33.8,28.4,81,29.80,10.0,SSE,3.5,-,N/A,,Clear,160,2012-12-12 20:30:00
2:50 PM,33.8,28.4,81,29.80,10.0,SSE,3.5,-,N/A,,Clear,150,2012-12-12 20:50:00
3:10 PM,33.8,28.4,81,29.81,10.0,Calm,Calm,-,N/A,,Clear,0,2012-12-12 21:10:00
3:30 PM,33.8,28.4,81,29.81,10.0,Calm,Calm,-,N/A,,Clear,0,2012-12-12 21:30:00
3:50 PM,33.8,30.2,87,29.81,10.0,SE,3.5,-,N/A,,Clear,130,2012-12-12 21:50:00
4:10 PM,33.8,30.2,87,29.82,10.0,Calm,Calm,-,N/A,,Clear,0,2012-12-12 22:10:00
4:30 PM,30.2,26.6,86,29.82,10.0,South,3.5,-,N/A,,Clear,170,2012-12-12 22:30:00
4:50 PM,30.2,26.6,86,29.82,10.0,Calm,Calm,-,N/A,,Mostly Cloudy,0,2012-12-12 22:50:00
5:10 PM,30.2,26.6,86,29.82,10.0,Calm,Calm,-,N/A,,Mostly Cloudy,0,2012-12-12 23:10:00
5:30 PM,32.0,28.4,87,29.83,10.0,Calm,Calm,-,N/A,,Scattered Clouds,0,2012-12-12 23:30:00
6:10 PM,30.2,26.6,86,29.83,10.0,ESE,4.6,-,N/A,,Scattered Clouds,120,2012-12-13 00:10:00
6:22 PM,-9999,-9999,N/A,29.83,10.0,ESE,5.8,-,N/A,,Clear,120,2012-12-13 00:22:00
6:29 PM,30.6,27.3,88,29.83,10.0,SE,5.8,-,N/A,,Clear,130,2012-12-13 00:29:00
6:49 PM,31.8,28.6,88,29.84,10.0,Calm,Calm,-,N/A,,Clear,0,2012-12-13 00:49:00
7:09 PM,32.0,28.2,86,29.85,10.0,Calm,Calm,-,N/A,,Clear,0,2012-12-13 01:09:00
7:28 PM,31.1,27.7,87,29.85,10.0,ESE,4.6,-,N/A,,Clear,120,2012-12-13 01:28:00
7:48 PM,29.3,26.4,89,29.86,10.0,ESE,4.6,-,N/A,,Clear,120,2012-12-13 01:48:00
8:09 PM,28.0,25.5,90,29.87,10.0,SE,3.5,-,N/A,,Clear,130,2012-12-13 02:09:00
8:29 PM,27.5,25.7,93,29.87,10.0,SE,4.6,-,N/A,,Clear,130,2012-12-13 02:29:00
8:49 PM,24.8,22.6,91,29.87,10.0,SE,4.6,-,N/A,,Clear,130,2012-12-13 02:49:00
9:09 PM,26.6,24.6,92,29.87,10.0,SE,4.6,-,N/A,,Clear,130,2012-12-13 03:09:00
9:29 PM,23.4,21.0,91,29.87,10.0,ESE,3.5,-,N/A,,Clear,120,2012-12-13 03:29:00
9:49 PM,21.7,19.9,93,29.88,10.0,Calm,Calm,-,N/A,,Clear,0,2012-12-13 03:49:00
10:07 PM,23.4,21.2,91,29.88,10.0,SE,3.5,-,N/A,,Clear,140,2012-12-13 04:07:00
10:28 PM,25.0,22.3,89,29.88,10.0,SE,5.8,-,N/A,,Clear,130,2012-12-13 04:28:00
10:49 PM,29.3,25.3,85,29.88,10.0,South,6.9,-,N/A,,Clear,170,2012-12-13 04:49:00
11:08 PM,29.3,24.8,83,29.88,10.0,South,8.1,-,N/A,,Clear,170,2012-12-13 05:08:00
11:29 PM,29.3,24.4,82,29.88,10.0,SSE,3.5,-,N/A,,Clear,160,2012-12-13 05:29:00
11:48 PM,29.3,24.8,83,29.88,10.0,SSE,3.5,-,N/A,,Clear,160,2012-12-13 05:48:00